Time;durP1;ratioP1;P1;durP2;ratioP2;P2;SDS_P1;SDS_P2;PMS_P1;PMS_P2;Temp;Humidity;BMP_temperature;BMP_pressure;BME280_temperature;BME280_humidity;BME280_pressure;Samples;Min_cycle;Max_cycle;Signal;HPM_P1;HPM_P2
2022/02/27 00:01:29;;;;;;;66.75;23.55;;;;;;;1.83;86.24;103158.31;5057229;28;20019;-49
2022/02/27 00:03:55;;;;;;;71.28;23.25;;;;;;;1.93;86.47;103162.28;5050425;28;20052;-51
2022/02/27 00:06:20;;;;;;;62.65;23.85;;;;;;;1.87;85.93;103151.94;5051727;28;20030;-48
2022/02/27 00:08:45;;;;;;;74.50;22.33;;;;;;;1.84;85.51;103162.66;5041251;28;20040;-49
2022/02/27 00:11:11;;;;;;;65.85;23.77;;;;;;;1.88;85.74;103166.94;5038266;28;20049;-52
2022/02/27 00:13:36;;;;;;;81.03;22.95;;;;;;;1.85;85.94;103156.44;5050842;28;20045;-51
2022/02/27 00:16:01;;;;;;;65.10;22.98;;;;;;;1.83;85.80;103157.44;5057275;28;20067;-53
2022/02/27 00:18:27;;;;;;;66.57;22.75;;;;;;;1.76;85.75;103167.47;5057017;28;20079;-50
2022/02/27 00:20:53;;;;;;;65.57;22.77;;;;;;;1.76;85.50;103162.16;5056762;28;20025;-49
2022/02/27 00:23:19;;;;;;;60.47;22.65;;;;;;;1.83;85.62;103158.31;5046405;28;20030;-51
2022/02/27 00:25:44;;;;;;;76.55;22.77;;;;;;;1.82;85.36;103158.34;5056264;28;20040;-52
2022/02/27 00:28:09;;;;;;;69.03;22.90;;;;;;;1.79;85.63;103164.69;5055001;28;20028;-50
2022/02/27 00:30:38;;;;;;;68.72;21.90;;;;;;;1.77;85.58;103158.59;5056364;28;20129;-51
2022/02/27 00:33:04;;;;;;;61.28;22.27;;;;;;;1.75;85.47;103150.69;5046187;28;20036;-50
2022/02/27 00:35:30;;;;;;;63.28;21.50;;;;;;;1.77;85.73;103157.72;5055906;28;20021;-52
2022/02/27 00:37:55;;;;;;;68.15;21.67;;;;;;;1.73;85.70;103147.22;5055702;28;20464;-51
2022/02/27 00:40:20;;;;;;;64.88;21.88;;;;;;;1.71;85.05;103143.78;5055790;28;20033;-52
2022/02/27 00:42:46;;;;;;;68.93;21.95;;;;;;;1.71;84.93;103148.22;5040350;28;20026;-51
2022/02/27 00:45:11;;;;;;;75.53;21.90;;;;;;;1.70;85.18;103151.81;5035836;28;20037;-51
2022/02/27 00:47:38;;;;;;;61.33;21.05;;;;;;;1.66;85.47;103150.22;5036076;28;20014;-52
2022/02/27 00:50:04;;;;;;;63.58;22.13;;;;;;;1.64;85.39;103152.94;5035260;28;20038;-52
2022/02/27 00:52:29;;;;;;;65.72;20.20;;;;;;;1.64;85.11;103147.63;5036592;28;20056;-53
2022/02/27 00:54:54;;;;;;;62.60;20.30;;;;;;;1.69;85.11;103144.78;5036965;28;20056;-49
2022/02/27 00:57:19;;;;;;;65.03;19.73;;;;;;;1.69;85.16;103144.78;5035035;28;20033;-51
2022/02/27 00:59:45;;;;;;;70.15;21.35;;;;;;;1.72;84.83;103144.66;5043232;28;20029;-50
2022/02/27 01:02:11;;;;;;;62.72;20.73;;;;;;;1.71;84.51;103138.47;5042060;28;20042;-50
2022/02/27 01:04:37;;;;;;;60.45;20.90;;;;;;;1.67;84.72;103141.34;5053336;28;20025;-51
2022/02/27 01:07:02;;;;;;;65.35;20.08;;;;;;;1.58;84.86;103147.03;5042635;28;20045;-51
2022/02/27 01:09:27;;;;;;;63.00;20.60;;;;;;;1.54;84.94;103141.88;5038905;28;20033;-52
2022/02/27 01:11:53;;;;;;;62.10;20.83;;;;;;;1.58;85.47;103141.72;5043983;28;20125;-51
2022/02/27 01:14:18;;;;;;;64.43;20.30;;;;;;;1.59;85.14;103141.66;5049709;28;20037;-51
2022/02/27 01:16:43;;;;;;;66.68;21.15;;;;;;;1.56;85.06;103135.66;5055224;28;20036;-51
2022/02/27 01:19:09;;;;;;;67.50;19.55;;;;;;;1.59;84.86;103135.50;5055014;28;20034;-53
2022/02/27 01:21:34;;;;;;;58.22;19.08;;;;;;;1.61;85.13;103142.47;5048308;28;20025;-49
2022/02/27 01:23:59;;;;;;;60.08;19.00;;;;;;;1.57;85.07;103121.44;5053631;28;20064;-50
2022/02/27 01:26:25;;;;;;;60.38;18.20;;;;;;;1.57;84.89;103132.91;5054314;28;20041;-52
2022/02/27 01:28:50;;;;;;;61.03;18.92;;;;;;;1.59;84.56;103138.16;5054722;28;20033;-51
2022/02/27 01:31:15;;;;;;;61.33;18.95;;;;;;;1.56;84.69;103133.00;5043462;28;20038;-49
2022/02/27 01:33:41;;;;;;;60.58;20.48;;;;;;;1.58;84.58;103128.44;5048096;28;20153;-48
2022/02/27 01:36:07;;;;;;;68.88;19.05;;;;;;;1.59;84.51;103128.41;5049679;28;20061;-50
2022/02/27 01:38:32;;;;;;;65.10;20.10;;;;;;;1.60;84.90;103118.63;5033822;28;20034;-51
2022/02/27 01:40:59;;;;;;;56.17;19.50;;;;;;;1.58;84.22;103129.34;5036491;28;20037;-49
2022/02/27 01:43:24;;;;;;;58.08;18.65;;;;;;;1.51;84.91;103123.41;5034709;28;20029;-50
2022/02/27 01:45:50;;;;;;;61.72;19.27;;;;;;;1.49;84.46;103127.06;5051042;28;20040;-51
2022/02/27 01:48:15;;;;;;;58.60;19.05;;;;;;;1.52;84.52;103133.09;5052712;28;20063;-52
2022/02/27 01:50:40;;;;;;;64.38;18.50;;;;;;;1.48;84.54;103131.53;5050281;28;20030;-51
2022/02/27 01:53:06;;;;;;;59.80;18.63;;;;;;;1.44;84.77;103135.22;5034149;28;20022;-51
2022/02/27 01:55:31;;;;;;;53.72;19.42;;;;;;;1.43;84.56;103132.66;5037653;28;20042;-53
2022/02/27 01:57:56;;;;;;;59.67;18.52;;;;;;;1.41;84.99;103132.72;5032776;28;20105;-51
2022/02/27 02:00:22;;;;;;;63.42;18.85;;;;;;;1.39;84.78;103131.91;5037870;28;20072;-52
2022/02/27 02:02:47;;;;;;;65.35;19.05;;;;;;;1.37;85.12;103128.47;5036233;28;20083;-52
2022/02/27 02:05:13;;;;;;;55.25;17.98;;;;;;;1.38;85.20;103130.19;5040426;28;20101;-50
2022/02/27 02:07:40;;;;;;;54.58;17.17;;;;;;;1.34;84.82;103133.88;5052680;28;20043;-52
2022/02/27 02:10:06;;;;;;;55.60;18.30;;;;;;;1.31;85.33;103128.72;5053336;28;20036;-52
2022/02/27 02:12:31;;;;;;;60.60;17.40;;;;;;;1.29;84.83;103133.22;5039543;28;20032;-50
2022/02/27 02:14:56;;;;;;;56.92;17.55;;;;;;;1.31;85.09;103128.72;5036387;28;20320;-49
2022/02/27 02:17:22;;;;;;;53.05;16.85;;;;;;;1.36;85.03;103129.38;5034388;28;20034;-51
2022/02/27 02:19:51;;;;;;;63.40;17.35;;;;;;;1.28;85.08;103134.16;5033342;28;20081;-52
2022/02/27 02:22:16;;;;;;;54.85;17.15;;;;;;;1.22;85.35;103131.78;5042026;28;20013;-49
2022/02/27 02:24:42;;;;;;;57.53;17.02;;;;;;;1.22;85.06;103129.13;5032995;28;20036;-50
2022/02/27 02:27:07;;;;;;;50.78;15.82;;;;;;;1.28;85.25;103120.91;5041451;28;20030;-53
2022/02/27 02:29:33;;;;;;;52.17;16.60;;;;;;;1.29;84.92;103114.66;5050424;28;20046;-50
2022/02/27 02:31:58;;;;;;;58.08;17.15;;;;;;;1.28;85.14;103118.25;5050710;28;20026;-53
2022/02/27 02:34:25;;;;;;;50.28;15.95;;;;;;;1.26;84.74;103113.03;5031803;28;20052;-52
2022/02/27 02:36:50;;;;;;;46.03;15.18;;;;;;;1.24;84.41;103112.22;5049392;28;20033;-51
2022/02/27 02:39:17;;;;;;;41.47;15.52;;;;;;;1.27;84.61;103116.53;5052379;28;20045;-52
2022/02/27 02:41:42;;;;;;;50.30;15.77;;;;;;;1.22;84.10;103108.75;5051890;28;20042;-52
2022/02/27 02:44:09;;;;;;;43.38;14.82;;;;;;;1.24;84.64;103108.72;5052637;28;20031;-50
2022/02/27 02:46:35;;;;;;;46.20;14.85;;;;;;;1.22;84.62;103099.94;5038182;28;20076;-51
2022/02/27 02:49:01;;;;;;;51.00;14.70;;;;;;;1.21;84.24;103095.56;5035064;28;20014;-50
2022/02/27 02:51:27;;;;;;;47.35;14.60;;;;;;;1.21;84.58;103092.91;5043969;28;20033;-53
2022/02/27 02:53:52;;;;;;;53.35;15.68;;;;;;;1.20;84.53;103093.84;5042019;28;20044;-50
2022/02/27 02:56:18;;;;;;;43.83;14.60;;;;;;;1.14;84.61;103100.28;5044285;28;20100;-50
2022/02/27 02:58:43;;;;;;;49.72;15.30;;;;;;;1.12;84.87;103093.31;5032755;28;20034;-51
2022/02/27 03:01:11;;;;;;;50.03;14.20;;;;;;;1.09;84.89;103095.16;5050321;28;20129;-49
2022/02/27 03:03:37;;;;;;;43.80;14.88;;;;;;;1.11;84.77;103095.09;5052947;28;20045;-53
2022/02/27 03:06:03;;;;;;;46.80;15.40;;;;;;;1.07;84.78;103091.69;5047769;28;20041;-50
2022/02/27 03:08:29;;;;;;;44.67;14.45;;;;;;;1.05;84.55;103090.94;5032896;28;20048;-51
2022/02/27 03:10:54;;;;;;;52.30;13.65;;;;;;;1.02;84.64;103083.06;5032698;28;20026;-50
2022/02/27 03:13:20;;;;;;;43.03;13.88;;;;;;;1.02;84.60;103080.41;5032228;28;20050;-50
2022/02/27 03:15:46;;;;;;;47.60;15.18;;;;;;;1.06;84.77;103075.88;5043295;28;20040;-49
2022/02/27 03:18:11;;;;;;;48.47;13.93;;;;;;;1.01;84.88;103078.72;5051155;28;20025;-51
2022/02/27 03:20:36;;;;;;;56.20;14.95;;;;;;;1.07;85.04;103083.75;5051998;28;20037;-50
2022/02/27 03:23:02;;;;;;;43.65;14.45;;;;;;;1.06;84.79;103082.03;5052351;28;20028;-51
2022/02/27 03:25:28;;;;;;;42.55;13.52;;;;;;;1.07;85.08;103089.03;5047942;28;20060;-49
2022/02/27 03:27:53;;;;;;;42.83;13.57;;;;;;;1.07;84.40;103072.28;5033065;28;20022;-51
2022/02/27 03:30:19;;;;;;;39.33;13.98;;;;;;;1.07;84.54;103069.63;5032326;28;20117;-51
2022/02/27 03:32:46;;;;;;;38.22;14.68;;;;;;;1.07;84.34;103078.44;5032060;28;20082;-48
2022/02/27 03:35:19;;;;;;;46.88;15.45;;;;;;;1.04;84.41;103078.56;5034630;28;20148;-49
2022/02/27 03:37:46;;;;;;;43.10;14.35;;;;;;;1.03;84.49;103074.22;5050196;28;20025;-52
2022/02/27 03:40:12;;;;;;;50.03;15.70;;;;;;;1.01;84.68;103076.06;5051274;28;20049;-52
2022/02/27 03:42:37;;;;;;;38.20;12.80;;;;;;;0.97;84.75;103077.09;5051551;28;20021;-49
2022/02/27 03:45:05;;;;;;;46.17;14.63;;;;;;;1.01;84.90;103084.00;5031968;28;20025;-49
2022/02/27 03:47:30;;;;;;;;;;;;;;;0.99;84.72;103080.56;5046614;28;20033;-49
2022/02/27 03:49:56;;;;;;;34.45;11.75;;;;;;;0.93;85.02;103078.19;5050541;28;19909;-50
2022/02/27 03:52:21;;;;;;;40.78;13.48;;;;;;;0.90;84.84;103075.66;5031482;28;20037;-51
2022/02/27 03:54:46;;;;;;;38.97;13.15;;;;;;;0.90;85.09;103090.72;5038957;28;20021;-50
2022/02/27 03:57:12;;;;;;;39.22;13.15;;;;;;;0.90;85.31;103080.97;5049110;28;20053;-50
2022/02/27 03:59:37;;;;;;;42.88;13.38;;;;;;;0.92;84.91;103084.38;5047281;28;20045;-51
2022/02/27 04:02:03;;;;;;;41.90;13.38;;;;;;;0.91;84.59;103077.38;5034855;28;20040;-48
2022/02/27 04:04:28;;;;;;;50.78;13.57;;;;;;;0.89;85.12;103073.91;5037735;28;20040;-52
2022/02/27 04:06:53;;;;;;;31.40;11.77;;;;;;;0.90;84.91;103083.63;5041830;28;20058;-52
2022/02/27 04:09:18;;;;;;;40.17;13.13;;;;;;;0.83;84.61;103085.63;5037897;28;20064;-51
2022/02/27 04:11:44;;;;;;;41.10;12.45;;;;;;;0.83;84.82;103090.09;5038617;28;20026;-50
2022/02/27 04:14:09;;;;;;;42.90;13.63;;;;;;;0.86;84.98;103077.56;5035858;28;20034;-49
2022/02/27 04:16:34;;;;;;;40.38;13.05;;;;;;;0.84;85.30;103075.88;5042595;28;20037;-52
2022/02/27 04:19:00;;;;;;;36.13;12.68;;;;;;;0.78;84.94;103065.56;5036836;28;20025;-52
2022/02/27 04:21:26;;;;;;;41.20;13.02;;;;;;;0.73;85.17;103073.69;5052913;28;20033;-49
2022/02/27 04:23:51;;;;;;;51.33;14.73;;;;;;;0.63;85.65;103073.22;5054420;28;20339;-50
2022/02/27 04:26:17;;;;;;;38.88;13.15;;;;;;;0.59;85.69;103068.09;5044609;28;20033;-52
2022/02/27 04:28:42;;;;;;;38.08;13.77;;;;;;;0.53;85.87;103063.91;5054122;28;20034;-50
2022/02/27 04:31:07;;;;;;;38.35;13.57;;;;;;;0.56;85.84;103077.03;5053423;28;20025;-50
2022/02/27 04:33:33;;;;;;;37.30;12.95;;;;;;;0.54;86.40;103070.06;5054383;28;20044;-51
2022/02/27 04:35:58;;;;;;;48.70;13.05;;;;;;;0.51;86.22;103078.16;5041289;28;20029;-52
2022/02/27 04:38:23;;;;;;;38.70;13.13;;;;;;;0.46;86.31;103075.69;5034579;28;20037;-52
2022/02/27 04:40:49;;;;;;;43.10;13.55;;;;;;;0.40;86.67;103076.78;5034156;28;20086;-52
2022/02/27 04:43:14;;;;;;;33.03;12.25;;;;;;;0.44;86.60;103073.06;5033823;28;20437;-53
2022/02/27 04:45:39;;;;;;;43.72;12.40;;;;;;;0.38;86.58;103073.34;5052861;28;20029;-50
2022/02/27 04:48:05;;;;;;;39.05;13.23;;;;;;;0.36;86.90;103080.47;5035415;28;20034;-48
2022/02/27 04:50:30;;;;;;;32.08;12.48;;;;;;;0.39;86.67;103075.03;5034211;28;20037;-50
2022/02/27 04:52:56;;;;;;;32.75;12.05;;;;;;;0.36;86.64;103077.81;5034531;28;20042;-51
2022/02/27 04:55:21;;;;;;;40.47;12.57;;;;;;;0.35;86.79;103070.81;5048701;28;20041;-52
2022/02/27 04:57:46;;;;;;;36.17;12.70;;;;;;;0.39;86.68;103077.69;5051535;28;20030;-50
2022/02/27 05:00:12;;;;;;;31.10;11.75;;;;;;;0.29;86.50;103075.47;5039559;28;20037;-52
2022/02/27 05:02:38;;;;;;;33.90;12.30;;;;;;;0.32;86.47;103078.03;5034205;28;20025;-51
2022/02/27 05:05:04;;;;;;;33.95;11.20;;;;;;;0.32;86.51;103078.03;5045160;28;20061;-52
2022/02/27 05:07:29;;;;;;;34.85;11.63;;;;;;;0.30;86.37;103063.97;5040990;28;20037;-49
2022/02/27 05:09:54;;;;;;;31.17;11.73;;;;;;;0.28;86.60;103065.81;5053589;28;20040;-52
2022/02/27 05:12:20;;;;;;;32.28;12.20;;;;;;;0.30;86.43;103070.13;5049225;28;20080;-51
2022/02/27 05:14:45;;;;;;;29.13;10.82;;;;;;;0.27;86.31;103062.31;5042557;28;20082;-50
2022/02/27 05:17:10;;;;;;;35.25;11.38;;;;;;;0.19;86.51;103062.59;5050430;28;20021;-52
2022/02/27 05:19:37;;;;;;;33.75;12.02;;;;;;;0.13;86.85;103051.38;5053194;28;20036;-52
2022/02/27 05:22:02;;;;;;;33.83;11.65;;;;;;;0.11;86.87;103047.94;5049686;28;20048;-52
2022/02/27 05:24:28;;;;;;;38.90;12.10;;;;;;;0.12;87.14;103039.06;5052388;28;20037;-49
2022/02/27 05:26:53;;;;;;;37.45;11.20;;;;;;;0.08;87.12;103045.41;5049211;28;20041;-52
2022/02/27 05:29:18;;;;;;;37.35;11.23;;;;;;;0.10;87.25;103046.22;5046971;28;20034;-50
2022/02/27 05:31:45;;;;;;;31.77;10.85;;;;;;;0.15;87.41;103042.44;5052427;28;20078;-52
2022/02/27 05:34:11;;;;;;;33.83;11.63;;;;;;;0.11;87.23;103043.50;5070015;28;20043;-48
2022/02/27 05:36:36;;;;;;;30.83;11.38;;;;;;;0.08;87.11;103043.63;5053429;28;20030;-51
2022/02/27 05:39:03;;;;;;;30.30;11.98;;;;;;;0.09;87.21;103045.34;5052662;28;20063;-51
2022/02/27 05:41:28;;;;;;;33.67;10.95;;;;;;;0.08;87.06;103037.47;5052172;28;20060;-50
2022/02/27 05:43:54;;;;;;;33.88;10.95;;;;;;;0.04;87.34;103046.47;5052809;28;20085;-51
2022/02/27 05:46:19;;;;;;;36.15;10.35;;;;;;;0.09;87.40;103040.06;5051924;28;20041;-51
2022/02/27 05:48:44;;;;;;;38.25;11.13;;;;;;;0.06;87.15;103040.19;5051582;28;20045;-48
2022/02/27 05:51:10;;;;;;;33.05;10.93;;;;;;;0.06;87.34;103040.19;5052658;28;20034;-51
2022/02/27 05:53:35;;;;;;;27.55;9.85;;;;;;;0.05;87.38;103037.59;5051927;28;20495;-51
2022/02/27 05:56:01;;;;;;;22.13;9.80;;;;;;;0.08;87.30;103048.03;5051424;28;20064;-50
2022/02/27 05:58:26;;;;;;;22.10;9.85;;;;;;;0.07;87.29;103051.63;5052909;28;20473;-51
2022/02/27 06:00:52;;;;;;;30.00;10.07;;;;;;;0.10;87.19;103044.41;5052299;28;20081;-51
2022/02/27 06:03:18;;;;;;;33.20;10.60;;;;;;;0.12;87.18;103053.16;5051915;28;20048;-49
2022/02/27 06:05:44;;;;;;;36.47;10.88;;;;;;;0.11;86.81;103063.84;5050596;28;20089;-49
2022/02/27 06:08:09;;;;;;;38.33;10.75;;;;;;;0.09;86.84;103055.94;5043542;28;20116;-50
2022/02/27 06:10:35;;;;;;;36.15;11.45;;;;;;;0.05;86.78;103070.22;5052508;28;20529;-50
2022/02/27 06:13:00;;;;;;;18.92;9.75;;;;;;;0.07;86.61;103071.03;5055254;28;20027;-49
2022/02/27 06:15:25;;;;;;;30.15;10.15;;;;;;;0.03;86.99;103066.78;5066988;28;20116;-48
2022/02/27 06:17:51;;;;;;;40.42;11.80;;;;;;;0.06;86.96;103071.94;5072318;28;20024;-51
2022/02/27 06:20:16;;;;;;;32.38;10.40;;;;;;;0.09;87.22;103070.97;5054854;28;20026;-50
2022/02/27 06:22:46;;;;;;;32.40;11.00;;;;;;;0.10;86.82;103068.25;5051818;28;20041;-49
2022/02/27 06:25:14;;;;;;;27.75;9.70;;;;;;;0.18;86.54;103070.59;5051225;28;20049;-52
2022/02/27 06:27:42;;;;;;;27.48;10.93;;;;;;;0.16;86.37;103054.78;5046356;28;20025;-49
2022/02/27 06:30:13;;;;;;;24.23;10.40;;;;;;;0.17;86.21;103051.22;5049413;28;20072;-53
2022/02/27 06:32:38;;;;;;;26.40;10.13;;;;;;;0.15;86.36;103055.69;5046506;28;20056;-49
2022/02/27 06:35:05;;;;;;;27.58;10.15;;;;;;;0.16;86.31;103051.28;5032504;28;20029;-49
2022/02/27 06:37:31;;;;;;;22.95;10.15;;;;;;;0.19;86.06;103051.16;5045358;28;20037;-48
2022/02/27 06:39:57;;;;;;;20.92;10.25;;;;;;;0.22;86.31;103058.97;5032316;28;20071;-51
2022/02/27 06:42:22;;;;;;;24.67;9.65;;;;;;;0.21;86.21;103055.47;5040111;28;20025;-51
2022/02/27 06:44:47;;;;;;;27.70;11.02;;;;;;;0.24;85.95;103064.19;5026054;28;20046;-52
2022/02/27 06:47:13;;;;;;;28.75;10.68;;;;;;;0.27;85.64;103062.31;5028610;28;20053;-53
2022/02/27 06:49:38;;;;;;;30.73;10.05;;;;;;;0.34;85.88;103068.22;5045767;28;20037;-49
2022/02/27 06:52:03;;;;;;;23.05;9.60;;;;;;;0.35;85.77;103062.88;5045621;28;20084;-53
2022/02/27 06:54:29;;;;;;;27.35;10.07;;;;;;;0.54;86.02;103073.59;5047849;28;20025;-49
2022/02/27 06:56:54;;;;;;;23.55;9.70;;;;;;;0.83;85.54;103071.53;5033037;28;20053;-54
2022/02/27 06:59:19;;;;;;;31.25;10.20;;;;;;;1.30;85.52;103074.81;5030372;28;20061;-52
2022/02/27 07:01:45;;;;;;;25.92;8.45;;;;;;;1.44;83.07;103076.84;5038214;28;20037;-49
2022/02/27 07:04:10;;;;;;;26.27;8.63;;;;;;;1.59;80.78;103071.81;5039612;28;20025;-51
2022/02/27 07:06:35;;;;;;;17.55;8.20;;;;;;;1.69;80.01;103084.59;5027241;28;20041;-50
2022/02/27 07:09:01;;;;;;;25.92;8.52;;;;;;;1.83;80.00;103083.97;5027184;28;20038;-50
2022/02/27 07:11:26;;;;;;;23.85;8.80;;;;;;;2.10;78.32;103084.47;5035171;28;20038;-48
2022/02/27 07:13:51;;;;;;;22.05;8.35;;;;;;;2.51;77.80;103075.47;5036637;28;20026;-50
2022/02/27 07:16:22;;;;;;;24.10;8.32;;;;;;;2.91;76.53;103069.03;5033002;28;20038;-53
2022/02/27 07:18:47;;;;;;;16.00;7.32;;;;;;;3.11;73.47;103070.69;5037513;28;20021;-50
2022/02/27 07:21:13;;;;;;;16.88;7.35;;;;;;;3.18;72.79;103072.09;5039616;28;20022;-52
2022/02/27 07:23:38;;;;;;;23.55;7.80;;;;;;;3.54;71.68;103072.91;5046033;28;20045;-50
2022/02/27 07:26:03;;;;;;;21.00;7.03;;;;;;;3.20;72.16;103070.22;5040647;28;20060;-52
2022/02/27 07:28:29;;;;;;;27.63;8.05;;;;;;;3.37;72.20;103073.78;5045489;28;20041;-50
2022/02/27 07:30:54;;;;;;;23.50;8.38;;;;;;;3.52;71.03;103070.31;5043138;28;20033;-50
2022/02/27 07:33:19;;;;;;;21.90;7.30;;;;;;;3.32;70.70;103074.06;5042959;28;20036;-50
2022/02/27 07:35:45;;;;;;;29.33;6.88;;;;;;;3.35;70.90;103084.53;5027464;28;20118;-49
2022/02/27 07:38:10;;;;;;;20.00;6.80;;;;;;;3.26;71.58;103085.84;5038936;28;20047;-49
2022/02/27 07:40:35;;;;;;;17.13;6.45;;;;;;;3.50;72.35;103077.53;5045310;28;20009;-51
2022/02/27 07:43:01;;;;;;;28.38;6.47;;;;;;;3.98;70.67;103073.19;5049425;28;20056;-51
2022/02/27 07:45:26;;;;;;;18.67;6.47;;;;;;;4.18;69.93;103080.91;5034066;28;20073;-51
2022/02/27 07:47:51;;;;;;;18.45;6.40;;;;;;;4.03;69.42;103087.13;5046084;28;20059;-50
2022/02/27 07:50:17;;;;;;;24.33;6.90;;;;;;;4.54;68.54;103085.13;5035575;28;20030;-52
2022/02/27 07:52:42;;;;;;;18.70;6.47;;;;;;;5.09;66.75;103083.75;5034423;28;20059;-49
2022/02/27 07:55:08;;;;;;;17.45;5.63;;;;;;;4.88;66.29;103087.69;5032126;28;20041;-52
2022/02/27 07:57:33;;;;;;;14.45;6.30;;;;;;;5.23;65.92;103086.44;5030149;28;20045;-51
2022/02/27 07:59:58;;;;;;;25.58;6.10;;;;;;;5.63;64.62;103084.00;5041959;28;20056;-51
2022/02/27 08:02:24;;;;;;;17.13;5.60;;;;;;;6.59;62.64;103084.22;5043710;28;20109;-53
2022/02/27 08:04:49;;;;;;;15.20;5.65;;;;;;;7.79;57.97;103089.44;5047066;28;20029;-52
2022/02/27 08:07:14;;;;;;;19.45;5.25;;;;;;;7.89;56.83;103087.81;5045065;28;20080;-52
2022/02/27 08:09:40;;;;;;;15.55;5.35;;;;;;;8.21;56.34;103081.94;5032522;28;20482;-52
2022/02/27 08:12:05;;;;;;;21.38;6.00;;;;;;;9.17;54.18;103077.44;5036420;28;20038;-51
2022/02/27 08:14:31;;;;;;;17.23;5.82;;;;;;;9.34;52.20;103073.44;5045977;28;20029;-52
2022/02/27 08:16:56;;;;;;;14.40;4.88;;;;;;;9.52;51.41;103075.69;5049262;28;20040;-50
2022/02/27 08:19:21;;;;;;;19.45;5.57;;;;;;;9.08;51.40;103071.91;5048310;28;20034;-50
2022/02/27 08:21:47;;;;;;;16.95;4.85;;;;;;;8.94;51.60;103076.50;5047404;28;20033;-50
2022/02/27 08:24:12;;;;;;;15.20;5.18;;;;;;;9.50;51.07;103066.88;5045913;28;20060;-51
2022/02/27 08:26:37;;;;;;;20.75;5.28;;;;;;;9.31;50.32;103067.47;5043798;28;20042;-53
2022/02/27 08:29:04;;;;;;;16.65;4.80;;;;;;;9.74;50.16;103082.91;5031945;28;20042;-52
2022/02/27 08:31:30;;;;;;;18.83;5.80;;;;;;;9.83;50.39;103076.81;5037000;28;20030;-51
2022/02/27 08:33:56;;;;;;;22.08;5.43;;;;;;;10.39;49.69;103082.16;5047548;28;20283;-53
2022/02/27 08:36:21;;;;;;;18.00;5.60;;;;;;;10.12;48.46;103082.53;5043277;28;20113;-52
2022/02/27 08:38:50;;;;;;;18.60;4.72;;;;;;;11.18;47.07;103084.53;5046471;28;20021;-51
2022/02/27 08:41:16;;;;;;;10.23;4.63;;;;;;;11.90;44.25;103086.41;5047803;28;20107;-53
2022/02/27 08:43:41;;;;;;;12.85;4.68;;;;;;;11.27;44.95;103086.47;5037932;28;20050;-51
2022/02/27 08:46:06;;;;;;;11.60;4.60;;;;;;;11.16;45.43;103075.72;5033514;28;20069;-53
2022/02/27 08:48:32;;;;;;;15.30;4.72;;;;;;;10.83;46.00;103085.69;5032695;28;20030;-53
2022/02/27 08:50:57;;;;;;;19.25;5.70;;;;;;;11.00;46.26;103089.66;5047483;28;20075;-50
2022/02/27 08:53:23;;;;;;;19.67;4.88;;;;;;;11.01;46.10;103077.06;5035703;28;20092;-51
2022/02/27 08:55:49;;;;;;;18.92;5.22;;;;;;;11.46;45.60;103083.03;5034799;28;20052;-51
2022/02/27 08:58:14;;;;;;;15.38;4.85;;;;;;;10.90;46.00;103083.31;5037140;28;20033;-54
2022/02/27 09:00:40;;;;;;;15.82;4.90;;;;;;;11.45;44.80;103085.84;5033482;28;20017;-52
2022/02/27 09:03:05;;;;;;;19.38;5.10;;;;;;;11.38;45.80;103086.38;5050098;28;20404;-53
2022/02/27 09:05:30;;;;;;;12.63;4.63;;;;;;;12.26;44.24;103081.41;5045745;28;20013;-49
2022/02/27 09:07:56;;;;;;;17.15;4.90;;;;;;;11.94;44.56;103085.13;5044790;28;20030;-53
2022/02/27 09:10:21;;;;;;;17.95;5.00;;;;;;;11.88;42.76;103083.00;5047806;28;20388;-51
2022/02/27 09:12:46;;;;;;;19.80;5.80;;;;;;;10.86;45.03;103089.97;5035781;28;20056;-53
2022/02/27 09:15:13;;;;;;;17.13;4.28;;;;;;;10.72;45.49;103073.13;5030279;28;20022;-53
2022/02/27 09:17:39;;;;;;;24.75;4.93;;;;;;;10.46;46.21;103071.75;5041389;28;20394;-52
2022/02/27 09:20:08;;;;;;;13.52;4.63;;;;;;;10.46;46.75;103067.22;5037246;28;20144;-53
2022/02/27 09:22:34;;;;;;;15.48;4.60;;;;;;;10.67;45.77;103069.97;5042109;28;20465;-53
2022/02/27 09:24:59;;;;;;;28.17;4.95;;;;;;;10.55;46.44;103066.44;5041786;28;20063;-51
2022/02/27 09:27:24;;;;;;;14.90;4.47;;;;;;;10.99;45.51;103075.34;5047013;28;20037;-54
2022/02/27 09:29:50;;;;;;;13.10;4.57;;;;;;;10.43;46.48;103062.09;5037104;28;20052;-53
2022/02/27 09:32:15;;;;;;;18.20;4.75;;;;;;;11.50;44.27;103070.97;5042418;28;20072;-53
2022/02/27 09:34:40;;;;;;;18.58;4.35;;;;;;;11.06;44.39;103075.69;5039146;28;20033;-50
2022/02/27 09:37:06;;;;;;;20.85;4.65;;;;;;;10.87;44.92;103079.06;5043853;28;20022;-51
2022/02/27 09:39:31;;;;;;;18.95;5.15;;;;;;;10.01;46.56;103061.03;5043838;28;20171;-52
2022/02/27 09:41:57;;;;;;;12.13;4.25;;;;;;;9.61;47.05;103067.78;5033393;28;20428;-53
2022/02/27 09:44:23;;;;;;;14.88;4.50;;;;;;;9.55;47.65;103059.31;5033829;28;20432;-53
2022/02/27 09:46:49;;;;;;;14.23;4.03;;;;;;;9.80;47.13;103059.09;5042820;28;20056;-49
2022/02/27 09:49:15;;;;;;;14.68;4.80;;;;;;;9.69;47.88;103061.78;5037110;28;20029;-50
2022/02/27 09:51:40;;;;;;;23.52;5.32;;;;;;;9.95;48.26;103072.28;5044509;28;20026;-52
2022/02/27 09:54:06;;;;;;;11.48;4.47;;;;;;;9.90;46.87;103061.91;5046490;28;20721;-53
2022/02/27 09:56:31;;;;;;;16.55;4.90;;;;;;;10.27;46.00;103061.63;5036199;28;20049;-53
2022/02/27 09:58:57;;;;;;;13.27;3.80;;;;;;;10.06;46.78;103064.22;5042304;28;20041;-53
2022/02/27 10:01:22;;;;;;;15.35;4.90;;;;;;;9.45;47.47;103070.81;5027355;28;20034;-52
2022/02/27 10:03:48;;;;;;;17.58;4.78;;;;;;;9.26;48.62;103065.13;5047408;28;20053;-51
2022/02/27 10:06:17;;;;;;;19.02;4.85;;;;;;;9.70;47.20;103059.94;5049762;28;20025;-52
2022/02/27 10:08:54;;;;;;;12.98;4.40;;;;;;;9.38;47.94;103053.44;5049015;28;20124;-54
2022/02/27 10:11:21;;;;;;;19.65;5.50;;;;;;;9.51;47.89;103056.03;5049411;28;20037;-51
2022/02/27 10:13:50;;;;;;;18.75;5.05;;;;;;;10.13;47.49;103051.09;5049095;28;20159;-52
2022/02/27 10:16:16;;;;;;;22.20;6.00;;;;;;;9.00;48.01;103049.22;5041781;28;20457;-53
2022/02/27 10:18:43;;;;;;;19.15;4.45;;;;;;;9.17;48.48;103041.69;5029608;28;20038;-51
2022/02/27 10:21:22;;;;;;;17.17;4.57;;;;;;;9.15;46.52;103046.31;5029369;28;20022;-50
2022/02/27 10:24:05;;;;;;;16.30;5.05;;;;;;;8.85;47.87;103045.00;5028979;28;20036;-52
2022/02/27 10:26:33;;;;;;;26.30;4.75;;;;;;;9.06;46.83;103047.00;5028329;28;20025;-52
2022/02/27 10:29:26;;;;;;;13.60;4.13;;;;;;;8.27;48.70;103049.34;5029623;28;20097;-51
2022/02/27 10:31:55;;;;;;;13.63;4.25;;;;;;;8.00;49.46;103034.25;5027706;28;20029;-51
2022/02/27 10:34:25;;;;;;;12.73;4.40;;;;;;;8.68;48.61;103037.34;5032177;28;20030;-50
2022/02/27 10:37:03;;;;;;;9.05;4.22;;;;;;;8.92;47.78;103034.63;5031127;28;20026;-52
2022/02/27 10:39:50;;;;;;;12.05;4.40;;;;;;;8.15;48.38;103026.94;5029468;28;20069;-53
2022/02/27 10:42:18;;;;;;;14.18;4.05;;;;;;;8.78;46.96;103027.63;5029296;28;20433;-53
2022/02/27 10:45:06;;;;;;;10.75;3.90;;;;;;;8.22;47.28;103024.66;5027680;28;20030;-50
2022/02/27 10:47:36;;;;;;;14.65;3.92;;;;;;;8.79;47.30;103019.47;5028430;28;20033;-52
2022/02/27 10:50:09;;;;;;;11.23;3.85;;;;;;;8.84;47.27;103016.41;5028255;28;20034;-52
2022/02/27 10:52:35;;;;;;;12.27;4.63;;;;;;;8.99;46.95;103009.88;5028640;28;20474;-51
2022/02/27 10:55:05;;;;;;;11.50;4.03;;;;;;;8.72;46.00;103012.84;5028976;28;20030;-52
2022/02/27 10:57:37;;;;;;;14.48;3.97;;;;;;;8.82;46.38;103012.13;5029023;28;20073;-50
2022/02/27 11:00:23;;;;;;;14.05;3.50;;;;;;;8.79;47.05;103011.44;5028231;28;20093;-51
2022/02/27 11:02:55;;;;;;;13.77;3.92;;;;;;;9.43;45.70;103004.72;5031316;28;20033;-54
2022/02/27 11:05:25;;;;;;;12.73;3.72;;;;;;;9.19;44.40;103008.34;5046914;28;20025;-51
2022/02/27 11:07:55;;;;;;;9.25;3.38;;;;;;;8.98;43.83;103007.31;5048038;28;20112;-51
2022/02/27 11:10:22;;;;;;;16.83;3.65;;;;;;;9.52;43.70;102995.06;5048693;28;20029;-52
2022/02/27 11:12:47;;;;;;;13.98;3.63;;;;;;;9.83;42.67;103007.75;5052306;28;20036;-50
2022/02/27 11:15:15;;;;;;;5.53;3.25;;;;;;;9.89;41.94;102993.78;5041433;28;20030;-52